Time;durP1;ratioP1;P1;durP2;ratioP2;P2;SDS_P1;SDS_P2;PMS_P1;PMS_P2;Temp;Humidity;BMP_temperature;BMP_pressure;BME280_temperature;BME280_humidity;BME280_pressure;Samples;Min_cycle;Max_cycle;Signal;HPM_P1;HPM_P2
2024/03/10 00:00:47;;;;;;;19.40;17.17;;;9.20;99.90;;;;;;5074735;28;20215;-76
2024/03/10 00:03:14;;;;;;;26.30;19.25;;;9.20;99.90;;;;;;5087089;28;20676;-76
2024/03/10 00:05:52;;;;;;;24.02;18.25;;;9.20;99.90;;;;;;5092539;28;20218;-77
2024/03/10 00:08:19;;;;;;;21.38;17.02;;;9.30;99.90;;;;;;5083842;28;20239;-76
2024/03/10 00:10:46;;;;;;;21.55;18.67;;;9.30;99.90;;;;;;5081915;28;20253;-77
2024/03/10 00:13:14;;;;;;;23.83;19.30;;;9.40;99.90;;;;;;5095052;28;20238;-77
2024/03/10 00:15:43;;;;;;;20.90;18.70;;;9.30;99.90;;;;;;5087801;28;20226;-77
2024/03/10 00:18:10;;;;;;;21.13;18.40;;;9.30;99.90;;;;;;5082528;28;20683;-77
2024/03/10 00:20:37;;;;;;;27.23;20.98;;;9.40;99.90;;;;;;5085890;28;20265;-78
2024/03/10 00:23:05;;;;;;;25.15;20.63;;;9.30;99.90;;;;;;5089341;28;20230;-78
2024/03/10 00:25:32;;;;;;;26.80;20.48;;;9.40;99.90;;;;;;5077848;28;20266;-77
2024/03/10 00:28:00;;;;;;;26.30;23.30;;;9.30;99.90;;;;;;5089733;28;20245;-77
2024/03/10 00:30:28;;;;;;;26.50;21.35;;;9.30;99.90;;;;;;5091779;28;20731;-78
2024/03/10 00:32:56;;;;;;;21.90;18.77;;;9.30;99.90;;;;;;5083343;28;20311;-78
2024/03/10 00:35:23;;;;;;;24.30;21.67;;;9.30;99.90;;;;;;5090713;28;20227;-78
2024/03/10 00:37:51;;;;;;;43.85;35.10;;;9.10;99.90;;;;;;5084701;28;23066;-77
2024/03/10 00:40:18;;;;;;;35.75;28.30;;;9.10;99.90;;;;;;5079912;28;20750;-77
2024/03/10 00:42:48;;;;;;;34.28;28.48;;;9.10;99.90;;;;;;5076673;28;20239;-77
2024/03/10 00:45:15;;;;;;;34.10;26.95;;;9.10;99.90;;;;;;5083010;28;20673;-77
2024/03/10 00:47:48;;;;;;;41.00;30.98;;;9.10;99.90;;;;;;5091779;28;20223;-77
2024/03/10 00:50:17;;;;;;;32.28;26.45;;;9.10;99.90;;;;;;5082209;28;20224;-77
2024/03/10 00:52:45;;;;;;;33.15;26.80;;;9.10;99.90;;;;;;5081445;28;20220;-77
2024/03/10 00:55:22;;;;;;;28.13;23.73;;;9.00;99.90;;;;;;5073594;28;20249;-77
2024/03/10 00:57:49;;;;;;;29.52;26.00;;;9.00;99.90;;;;;;5080509;28;20406;-76
2024/03/10 01:00:28;;;;;;;27.88;23.42;;;9.00;99.90;;;;;;5083220;28;20317;-77
2024/03/10 01:02:55;;;;;;;28.95;26.02;;;9.10;99.90;;;;;;5085059;28;20302;-76
2024/03/10 01:05:24;;;;;;;36.17;31.95;;;9.10;99.90;;;;;;5092328;28;20406;-76
2024/03/10 01:07:52;;;;;;;41.53;34.78;;;9.00;99.90;;;;;;5095942;28;20238;-76
2024/03/10 01:10:24;;;;;;;40.85;36.95;;;9.00;99.90;;;;;;5089099;28;20227;-78
2024/03/10 01:12:51;;;;;;;26.40;22.95;;;9.00;99.90;;;;;;5091582;28;20212;-77
2024/03/10 01:15:31;;;;;;;36.78;32.78;;;9.00;99.90;;;;;;5082396;28;20235;-77
2024/03/10 01:17:58;;;;;;;30.05;26.60;;;9.00;99.90;;;;;;5084186;28;20223;-77
2024/03/10 01:20:36;;;;;;;35.20;31.73;;;9.00;99.90;;;;;;5083322;28;20285;-77
2024/03/10 01:23:05;;;;;;;26.80;21.88;;;9.00;99.90;;;;;;5093153;28;20224;-77
2024/03/10 01:25:33;;;;;;;25.15;20.15;;;8.90;99.90;;;;;;5094483;28;20227;-77
2024/03/10 01:28:00;;;;;;;27.10;21.90;;;8.90;99.90;;;;;;5090766;28;20219;-77
2024/03/10 01:30:27;;;;;;;21.90;18.98;;;8.90;99.90;;;;;;5072723;28;20298;-77
2024/03/10 01:32:55;;;;;;;22.90;18.88;;;9.00;99.90;;;;;;5096465;28;20219;-77
2024/03/10 01:35:24;;;;;;;23.58;20.27;;;9.00;99.90;;;;;;5083923;28;20230;-77
2024/03/10 01:38:00;;;;;;;23.20;18.88;;;9.00;99.90;;;;;;5103713;28;20223;-77
2024/03/10 01:40:27;;;;;;;23.38;19.00;;;9.00;99.90;;;;;;5047665;28;20226;-76
2024/03/10 01:42:55;;;;;;;24.95;19.02;;;9.00;99.90;;;;;;5080878;28;20239;-76
2024/03/10 01:45:22;;;;;;;24.42;19.58;;;9.00;99.90;;;;;;5082597;28;20227;-76
2024/03/10 01:47:50;;;;;;;21.67;17.83;;;9.00;99.90;;;;;;5094844;28;20310;-77
2024/03/10 01:50:19;;;;;;;22.55;18.85;;;9.00;99.90;;;;;;5084914;28;20245;-78
2024/03/10 01:52:47;;;;;;;22.75;19.90;;;8.90;99.90;;;;;;5094772;28;20597;-77
2024/03/10 01:55:18;;;;;;;28.05;21.55;;;8.90;99.90;;;;;;5093795;28;20297;-77
2024/03/10 01:57:47;;;;;;;24.63;19.35;;;8.90;99.90;;;;;;5095373;28;20309;-77
2024/03/10 02:00:15;;;;;;;24.65;19.08;;;8.80;99.90;;;;;;5092401;28;20672;-77
2024/03/10 02:02:44;;;;;;;24.73;20.88;;;8.80;99.90;;;;;;5065237;28;20554;-77
2024/03/10 02:05:11;;;;;;;25.20;18.85;;;8.70;99.90;;;;;;5077501;28;20313;-76
2024/03/10 02:07:41;;;;;;;24.45;18.58;;;8.70;99.90;;;;;;5074194;28;20274;-77
2024/03/10 02:10:38;;;;;;;22.55;18.65;;;8.70;99.90;;;;;;5072089;28;20289;-77
2024/03/10 02:13:06;;;;;;;24.35;20.80;;;8.70;99.90;;;;;;5050642;28;20255;-77
2024/03/10 02:15:38;;;;;;;25.90;20.83;;;8.70;99.90;;;;;;5087018;28;20230;-77
2024/03/10 02:18:05;;;;;;;27.63;20.08;;;8.70;99.90;;;;;;5072876;28;20244;-77
2024/03/10 02:20:33;;;;;;;25.65;19.92;;;8.60;99.90;;;;;;5072618;28;20220;-77
2024/03/10 02:23:00;;;;;;;24.70;22.00;;;8.60;99.90;;;;;;5073704;28;20255;-77
2024/03/10 02:25:48;;;;;;;28.30;22.55;;;8.50;99.90;;;;;;5071749;28;20230;-77
2024/03/10 02:29:14;;;;;;;27.10;19.98;;;8.50;99.90;;;;;;5080325;28;20238;-77
2024/03/10 02:48:53;;;;;;;29.38;21.50;;;8.30;99.90;;;;;;5094018;28;20237;-77
2024/03/10 02:51:21;;;;;;;27.02;21.52;;;8.30;99.90;;;;;;5081920;28;20216;-77
2024/03/10 02:53:48;;;;;;;29.13;22.55;;;8.40;99.90;;;;;;5092588;28;20295;-77
2024/03/10 02:56:15;;;;;;;29.50;22.15;;;8.40;99.90;;;;;;5093795;28;20219;-77
2024/03/10 02:58:44;;;;;;;28.45;22.35;;;8.20;99.90;;;;;;5092605;28;20238;-77
2024/03/10 03:01:11;;;;;;;29.83;23.40;;;8.30;99.90;;;;;;5081686;28;20258;-77
2024/03/10 03:03:46;;;;;;;28.35;22.00;;;8.30;99.90;;;;;;5073320;28;20224;-76
2024/03/10 03:06:13;;;;;;;30.35;23.33;;;8.20;99.90;;;;;;5064128;28;20223;-76
2024/03/10 03:08:44;;;;;;;30.05;23.55;;;8.10;99.90;;;;;;5086048;28;20235;-77
2024/03/10 03:11:11;;;;;;;31.23;23.17;;;8.20;99.90;;;;;;5072627;28;20219;-77
2024/03/10 03:13:41;;;;;;;32.95;25.23;;;8.10;99.90;;;;;;5072359;28;20223;-77
2024/03/10 03:16:09;;;;;;;29.70;23.10;;;8.10;99.90;;;;;;5083683;28;20265;-77
2024/03/10 03:18:45;;;;;;;32.33;24.35;;;8.10;99.90;;;;;;5080666;28;20234;-77
2024/03/10 03:21:12;;;;;;;28.17;22.83;;;8.00;99.90;;;;;;5090448;28;20215;-77
2024/03/10 03:23:44;;;;;;;30.73;24.60;;;8.10;99.90;;;;;;5087163;28;20231;-77
2024/03/10 03:26:14;;;;;;;32.65;24.65;;;8.00;99.90;;;;;;5091097;28;20223;-76
2024/03/10 03:28:50;;;;;;;29.73;22.75;;;8.10;99.90;;;;;;5090314;28;20252;-76
2024/03/10 03:31:39;;;;;;;34.70;25.83;;;8.00;99.90;;;;;;5082689;28;20285;-77
2024/03/10 03:34:06;;;;;;;31.88;24.90;;;8.00;99.90;;;;;;5072370;28;20747;-77
2024/03/10 03:36:34;;;;;;;28.88;22.27;;;7.90;99.90;;;;;;5074351;28;20219;-77
2024/03/10 03:39:09;;;;;;;32.70;23.58;;;7.90;99.90;;;;;;5081148;28;20219;-77
2024/03/10 03:41:37;;;;;;;27.02;22.13;;;7.90;99.90;;;;;;5067881;28;20198;-77
2024/03/10 03:44:06;;;;;;;30.85;22.98;;;7.90;99.90;;;;;;5091797;28;20669;-77
2024/03/10 03:46:35;;;;;;;30.67;22.05;;;7.90;99.90;;;;;;5076871;28;20603;-77
2024/03/10 03:49:02;;;;;;;32.42;24.45;;;7.90;99.90;;;;;;5075853;28;20220;-77
2024/03/10 03:51:29;;;;;;;33.22;25.08;;;7.90;99.90;;;;;;5077193;28;20239;-77
2024/03/10 03:53:56;;;;;;;30.60;23.77;;;7.90;99.90;;;;;;5072419;28;20230;-76
2024/03/10 03:56:23;;;;;;;33.33;27.30;;;7.90;99.90;;;;;;5096336;28;20215;-77
2024/03/10 03:58:50;;;;;;;35.55;27.88;;;7.90;99.90;;;;;;5096637;28;20251;-77
2024/03/10 04:01:18;;;;;;;31.88;25.10;;;7.80;99.90;;;;;;5095863;28;20219;-77
2024/03/10 04:03:46;;;;;;;30.77;24.58;;;7.80;99.90;;;;;;5096934;28;20273;-78
2024/03/10 04:06:14;;;;;;;31.48;24.20;;;7.80;99.90;;;;;;5096011;28;20656;-77
2024/03/10 04:08:42;;;;;;;36.45;26.85;;;7.80;99.90;;;;;;5096515;28;20625;-77
2024/03/10 04:11:09;;;;;;;35.25;25.60;;;7.70;99.90;;;;;;5096534;28;20241;-77
2024/03/10 04:13:37;;;;;;;38.85;28.10;;;7.70;99.90;;;;;;5101457;28;20417;-77
2024/03/10 04:16:09;;;;;;;36.05;25.95;;;7.70;99.90;;;;;;5095100;28;20282;-77
2024/03/10 04:18:36;;;;;;;36.78;27.95;;;7.60;99.90;;;;;;5096958;28;20229;-76
2024/03/10 04:21:08;;;;;;;34.55;26.83;;;7.60;99.90;;;;;;5096349;28;20673;-77
2024/03/10 04:23:36;;;;;;;34.78;26.48;;;7.60;99.90;;;;;;5096525;28;20227;-77
2024/03/10 04:26:03;;;;;;;36.08;26.33;;;7.50;99.90;;;;;;5095431;28;20298;-77
2024/03/10 04:28:31;;;;;;;35.22;25.90;;;7.50;99.90;;;;;;5096425;28;20285;-77
2024/03/10 04:30:58;;;;;;;38.53;27.60;;;7.40;99.90;;;;;;5095897;28;20688;-77
2024/03/10 04:33:25;;;;;;;34.38;26.55;;;7.50;99.90;;;;;;5096635;28;20238;-77
2024/03/10 04:35:52;;;;;;;39.20;27.25;;;7.50;99.90;;;;;;5096412;28;20688;-77
2024/03/10 04:38:20;;;;;;;37.58;28.63;;;7.40;99.90;;;;;;5095569;28;20219;-77
2024/03/10 04:40:47;;;;;;;34.60;27.75;;;7.40;99.90;;;;;;5096336;28;20223;-77
2024/03/10 04:43:14;;;;;;;39.53;29.58;;;7.40;99.90;;;;;;5095729;28;20219;-77
2024/03/10 04:45:42;;;;;;;39.22;29.25;;;7.50;99.90;;;;;;5095862;28;20218;-76
2024/03/10 04:48:15;;;;;;;35.53;26.30;;;7.40;99.90;;;;;;5093154;28;20273;-77
2024/03/10 04:50:45;;;;;;;37.53;27.50;;;7.50;99.90;;;;;;5096038;28;20239;-77
2024/03/10 04:53:15;;;;;;;34.97;27.65;;;7.50;99.90;;;;;;5095174;28;20281;-77
2024/03/10 04:55:45;;;;;;;39.05;26.98;;;7.50;99.90;;;;;;5096350;28;20644;-77
2024/03/10 04:58:15;;;;;;;39.08;29.48;;;7.50;99.90;;;;;;5095154;28;20231;-77
2024/03/10 05:00:56;;;;;;;35.83;28.15;;;7.60;99.90;;;;;;5096545;28;20300;-77
2024/03/10 05:03:28;;;;;;;35.35;26.27;;;7.60;99.90;;;;;;5095330;28;20229;-76
2024/03/10 05:05:55;;;;;;;41.88;27.80;;;7.50;99.90;;;;;;5090655;28;20230;-77
2024/03/10 05:08:23;;;;;;;36.00;27.42;;;7.40;99.90;;;;;;5103955;28;20231;-77
2024/03/10 05:10:52;;;;;;;38.50;29.30;;;7.40;99.90;;;;;;5095893;28;20227;-77
2024/03/10 05:13:19;;;;;;;38.92;26.30;;;7.50;99.90;;;;;;5095189;28;20692;-77
2024/03/10 05:15:50;;;;;;;35.80;27.75;;;7.50;99.90;;;;;;5096220;28;20223;-77
2024/03/10 05:18:17;;;;;;;40.60;27.33;;;7.50;99.90;;;;;;5096167;28;20227;-77
2024/03/10 05:20:44;;;;;;;36.47;28.02;;;7.40;99.90;;;;;;5095893;28;20246;-77
2024/03/10 05:23:11;;;;;;;37.60;28.33;;;7.30;99.90;;;;;;5095112;28;20284;-77
2024/03/10 05:25:48;;;;;;;34.28;26.20;;;7.30;99.90;;;;;;5095690;28;20242;-77
2024/03/10 05:28:17;;;;;;;36.33;27.65;;;7.30;99.90;;;;;;5095269;28;20233;-77
2024/03/10 05:30:47;;;;;;;33.42;26.70;;;7.30;99.90;;;;;;5095554;28;20223;-77
2024/03/10 05:33:14;;;;;;;37.80;27.95;;;7.40;99.90;;;;;;5094968;28;20680;-77
2024/03/10 05:35:41;;;;;;;33.45;26.63;;;7.30;99.90;;;;;;5095428;28;20605;-76
2024/03/10 05:38:08;;;;;;;40.30;29.63;;;7.40;99.90;;;;;;5094973;28;20539;-77
2024/03/10 05:40:35;;;;;;;37.13;27.70;;;7.30;99.90;;;;;;5094280;28;20614;-76
2024/03/10 05:43:03;;;;;;;38.33;28.88;;;7.30;99.90;;;;;;5095004;28;20227;-77
2024/03/10 05:45:40;;;;;;;36.95;26.70;;;7.30;99.90;;;;;;5094482;28;20553;-77
2024/03/10 05:48:07;;;;;;;35.30;27.92;;;7.20;99.90;;;;;;5095072;28;20696;-76
2024/03/10 05:50:34;;;;;;;37.28;28.65;;;7.20;99.90;;;;;;5093951;28;20215;-76
2024/03/10 05:53:01;;;;;;;36.97;27.52;;;7.20;99.90;;;;;;5094997;28;20234;-76
2024/03/10 05:55:32;;;;;;;38.88;29.58;;;7.30;99.90;;;;;;5094121;28;20322;-77
2024/03/10 05:57:59;;;;;;;39.28;27.17;;;7.30;99.90;;;;;;5094943;28;20219;-77
2024/03/10 06:00:27;;;;;;;36.42;25.70;;;7.30;99.90;;;;;;5093573;28;20250;-77
2024/03/10 06:02:55;;;;;;;32.47;25.27;;;7.30;99.90;;;;;;5094633;28;20676;-77
2024/03/10 06:05:22;;;;;;;30.60;24.77;;;7.30;99.90;;;;;;5093761;28;20228;-77
2024/03/10 06:07:49;;;;;;;42.47;28.92;;;7.40;99.90;;;;;;5094692;28;20227;-77
2024/03/10 06:10:18;;;;;;;31.63;25.95;;;7.40;99.90;;;;;;5094114;28;20277;-77
2024/03/10 06:12:48;;;;;;;36.28;25.70;;;7.40;99.90;;;;;;5094320;28;20259;-77
2024/03/10 06:15:19;;;;;;;32.55;25.77;;;7.40;99.90;;;;;;5093461;28;20778;-76
2024/03/10 06:18:04;;;;;;;33.80;25.15;;;7.40;99.90;;;;;;5093870;28;20560;-77
2024/03/10 06:26:05;;;;;;;33.58;26.48;;;7.40;99.90;;;;;;5094249;28;20218;-77
2024/03/10 06:28:32;;;;;;;36.45;25.48;;;7.50;99.90;;;;;;5093280;28;20688;-77
2024/03/10 06:31:11;;;;;;;37.38;27.02;;;7.40;99.90;;;;;;5093873;28;20281;-77
2024/03/10 06:33:39;;;;;;;38.35;27.90;;;7.50;99.90;;;;;;5093078;28;20227;-77
2024/03/10 06:36:09;;;;;;;36.15;25.85;;;7.50;99.90;;;;;;5093654;28;20625;-77
2024/03/10 06:38:39;;;;;;;38.40;28.13;;;7.50;99.90;;;;;;5093364;28;20227;-77
2024/03/10 06:41:07;;;;;;;36.83;27.27;;;7.60;99.90;;;;;;5094121;28;20234;-77
2024/03/10 06:43:34;;;;;;;31.65;24.35;;;7.50;99.90;;;;;;5091669;28;20227;-77
2024/03/10 06:46:02;;;;;;;40.85;27.63;;;7.60;99.90;;;;;;5093756;28;20249;-77
2024/03/10 06:48:30;;;;;;;36.92;26.75;;;7.60;99.90;;;;;;5093163;28;20281;-77
2024/03/10 06:50:57;;;;;;;37.63;26.33;;;7.70;99.90;;;;;;5093681;28;20276;-77
2024/03/10 06:53:26;;;;;;;32.25;25.38;;;7.70;99.90;;;;;;5093226;28;20285;-77
2024/03/10 06:56:07;;;;;;;35.15;25.50;;;7.80;99.90;;;;;;5093610;28;20239;-76
2024/03/10 06:58:34;;;;;;;31.77;25.35;;;7.80;99.90;;;;;;5093330;28;20223;-77
2024/03/10 07:01:05;;;;;;;36.55;26.83;;;7.80;99.90;;;;;;5093312;28;20219;-78
2024/03/10 07:03:35;;;;;;;32.50;26.45;;;7.80;99.90;;;;;;5098634;28;20258;-77
2024/03/10 07:06:03;;;;;;;34.53;26.35;;;7.80;99.90;;;;;;5093337;28;20223;-77
2024/03/10 07:08:31;;;;;;;31.55;26.15;;;7.90;99.90;;;;;;5093232;28;20254;-77
2024/03/10 07:10:59;;;;;;;39.13;27.05;;;7.90;99.90;;;;;;5083143;28;20733;-76
2024/03/10 07:13:26;;;;;;;32.63;24.73;;;8.00;99.90;;;;;;5093554;28;20246;-77
2024/03/10 07:15:53;;;;;;;34.20;24.85;;;8.00;99.90;;;;;;5093172;28;20235;-77
2024/03/10 07:18:20;;;;;;;26.63;23.63;;;8.00;99.90;;;;;;5093487;28;20654;-77
2024/03/10 07:20:50;;;;;;;31.38;26.27;;;8.10;99.90;;;;;;5084441;28;20281;-77
2024/03/10 07:23:19;;;;;;;34.60;25.08;;;8.10;99.90;;;;;;5106755;28;20243;-77
2024/03/10 07:25:51;;;;;;;32.60;26.90;;;8.20;99.90;;;;;;5092598;28;20310;-77
2024/03/10 07:28:20;;;;;;;36.63;27.20;;;8.20;99.90;;;;;;5093250;28;20302;-77
2024/03/10 07:30:47;;;;;;;35.05;26.30;;;8.20;99.90;;;;;;5092294;28;20243;-77
2024/03/10 07:33:14;;;;;;;35.05;27.33;;;8.30;99.90;;;;;;5093240;28;20227;-77
2024/03/10 07:35:41;;;;;;;32.13;26.67;;;8.30;99.90;;;;;;5092750;28;20231;-77
2024/03/10 07:38:09;;;;;;;29.30;23.63;;;8.40;99.90;;;;;;5093370;28;20280;-77
2024/03/10 07:40:35;;;;;;;32.80;25.30;;;8.50;99.90;;;;;;5099124;28;20218;-77
2024/03/10 07:43:06;;;;;;;32.42;25.48;;;8.50;99.90;;;;;;5093062;28;20219;-77
2024/03/10 07:45:35;;;;;;;33.60;24.63;;;8.60;99.90;;;;;;5093214;28;20227;-77
2024/03/10 07:48:05;;;;;;;32.70;27.17;;;8.60;99.90;;;;;;5092847;28;20582;-77
2024/03/10 07:50:32;;;;;;;34.88;26.50;;;8.70;99.90;;;;;;5093176;28;20625;-77
2024/03/10 07:53:01;;;;;;;32.25;24.95;;;8.70;99.90;;;;;;5092356;28;20732;-77
2024/03/10 07:55:30;;;;;;;30.58;25.27;;;8.80;99.90;;;;;;5084181;28;20227;-77
2024/03/10 07:57:59;;;;;;;28.63;22.23;;;8.80;99.90;;;;;;5074988;28;20227;-78
2024/03/10 08:00:36;;;;;;;29.20;24.48;;;8.90;99.90;;;;;;5093142;28;20622;-77
2024/03/10 08:03:03;;;;;;;30.17;25.02;;;9.00;99.90;;;;;;5092150;28;20243;-77
2024/03/10 08:05:30;;;;;;;30.80;23.40;;;9.00;99.90;;;;;;5093029;28;20227;-77
2024/03/10 08:07:57;;;;;;;29.70;25.10;;;9.10;99.90;;;;;;5092402;28;20261;-77
2024/03/10 08:10:25;;;;;;;35.35;25.60;;;9.20;99.90;;;;;;5093112;28;20567;-77
2024/03/10 08:12:55;;;;;;;34.58;25.60;;;9.20;99.90;;;;;;5091891;28;20238;-77
2024/03/10 08:15:22;;;;;;;29.52;24.33;;;9.30;99.90;;;;;;5092738;28;20231;-77
2024/03/10 08:17:54;;;;;;;31.25;24.38;;;9.40;99.90;;;;;;5092507;28;20228;-77
2024/03/10 08:20:24;;;;;;;31.95;24.17;;;9.50;99.90;;;;;;5092242;28;20230;-76
2024/03/10 08:22:52;;;;;;;31.25;24.10;;;9.50;99.90;;;;;;5094063;28;20231;-76
2024/03/10 08:25:25;;;;;;;30.85;26.23;;;9.60;99.90;;;;;;5096683;28;20242;-77
2024/03/10 08:27:54;;;;;;;28.17;23.88;;;9.60;99.90;;;;;;5095743;28;20227;-77
2024/03/10 08:30:21;;;;;;;29.88;23.27;;;9.70;99.90;;;;;;5096731;28;20234;-77
2024/03/10 08:32:49;;;;;;;31.30;23.77;;;9.80;99.90;;;;;;5096072;28;20539;-77
2024/03/10 08:35:20;;;;;;;29.88;23.52;;;9.80;99.90;;;;;;5096189;28;20247;-77
2024/03/10 08:37:47;;;;;;;30.40;24.77;;;9.80;99.90;;;;;;5096512;28;20230;-77
2024/03/10 08:40:16;;;;;;;29.92;22.67;;;9.80;99.90;;;;;;5096067;28;20242;-77
2024/03/10 08:42:44;;;;;;;29.98;24.02;;;9.90;99.90;;;;;;5095136;28;20219;-77
2024/03/10 08:45:12;;;;;;;30.88;25.00;;;10.00;99.90;;;;;;5096118;28;20538;-77
2024/03/10 08:47:40;;;;;;;28.90;22.00;;;10.00;99.90;;;;;;5096417;28;20676;-77
2024/03/10 08:50:10;;;;;;;29.08;22.85;;;10.10;99.90;;;;;;5095209;28;20219;-77
2024/03/10 08:52:38;;;;;;;31.35;23.65;;;10.20;99.90;;;;;;5096204;28;20219;-77
2024/03/10 08:55:06;;;;;;;26.15;22.77;;;10.30;99.90;;;;;;5095133;28;20223;-77
2024/03/10 08:57:35;;;;;;;28.95;24.65;;;10.30;99.90;;;;;;5087182;28;20309;-76
2024/03/10 09:00:02;;;;;;;29.40;24.48;;;10.40;99.90;;;;;;5095618;28;20224;-77
2024/03/10 09:02:33;;;;;;;29.27;24.33;;;10.50;99.90;;;;;;5096170;28;20223;-77
2024/03/10 09:05:00;;;;;;;28.02;24.00;;;10.50;99.90;;;;;;5095798;28;20548;-77
2024/03/10 09:07:29;;;;;;;27.33;21.60;;;10.60;99.90;;;;;;5096020;28;20220;-77
2024/03/10 09:09:57;;;;;;;27.33;22.58;;;10.60;99.90;;;;;;5096260;28;20227;-77
2024/03/10 09:12:28;;;;;;;30.52;23.83;;;10.60;99.90;;;;;;5095381;28;20219;-76
2024/03/10 09:14:55;;;;;;;29.98;24.20;;;10.60;99.90;;;;;;5095774;28;20224;-77
2024/03/10 09:17:22;;;;;;;28.33;23.45;;;10.70;99.90;;;;;;5095392;28;20223;-77
2024/03/10 09:19:49;;;;;;;29.92;25.55;;;10.70;99.90;;;;;;5100103;28;20222;-76
2024/03/10 09:22:16;;;;;;;30.10;23.10;;;10.70;99.90;;;;;;5087495;28;20253;-77
2024/03/10 09:24:46;;;;;;;29.38;23.98;;;10.70;99.90;;;;;;5095592;28;20215;-77
2024/03/10 09:27:13;;;;;;;28.83;23.95;;;10.80;99.90;;;;;;5094338;28;20276;-77
2024/03/10 09:29:42;;;;;;;28.33;22.77;;;10.80;99.90;;;;;;5095680;28;20665;-78
2024/03/10 09:32:15;;;;;;;27.90;23.55;;;10.80;99.90;;;;;;5094708;28;20234;-77
2024/03/10 09:34:46;;;;;;;29.17;24.63;;;10.90;99.90;;;;;;5094380;28;20679;-76
2024/03/10 09:37:13;;;;;;;27.25;23.52;;;10.90;99.90;;;;;;5094419;28;20223;-76
2024/03/10 09:39:40;;;;;;;27.85;24.13;;;11.00;99.90;;;;;;5094900;28;20298;-76
2024/03/10 09:42:13;;;;;;;28.42;23.08;;;11.00;99.90;;;;;;5095024;28;20732;-76
2024/03/10 09:44:45;;;;;;;31.30;26.42;;;11.00;99.90;;;;;;5095804;28;20223;-77
2024/03/10 09:47:13;;;;;;;26.80;23.60;;;11.10;99.90;;;;;;5095010;28;20221;-76
2024/03/10 09:49:42;;;;;;;28.88;25.67;;;11.10;99.90;;;;;;5095601;28;20237;-77
2024/03/10 09:52:10;;;;;;;29.25;22.85;;;11.10;99.90;;;;;;5093843;28;20241;-77
2024/03/10 09:54:38;;;;;;;29.80;25.15;;;11.20;99.90;;;;;;5094948;28;20227;-77
2024/03/10 09:57:10;;;;;;;29.20;23.80;;;11.40;99.90;;;;;;5095120;28;20235;-77
2024/03/10 09:59:42;;;;;;;24.98;22.10;;;11.40;99.90;;;;;;5094879;28;20243;-77
2024/03/10 10:02:19;;;;;;;26.58;22.55;;;11.40;99.90;;;;;;5094457;28;20230;-77
2024/03/10 10:04:56;;;;;;;29.35;23.77;;;11.60;99.90;;;;;;5095411;28;20736;-76
2024/03/10 10:07:26;;;;;;;26.67;23.10;;;11.60;99.90;;;;;;5094045;28;20310;-77
2024/03/10 10:10:01;;;;;;;26.35;23.38;;;11.70;99.90;;;;;;5094862;28;20554;-76
2024/03/10 10:12:30;;;;;;;26.30;23.00;;;11.90;99.90;;;;;;5093901;28;20226;-77
2024/03/10 10:14:59;;;;;;;28.08;22.08;;;11.90;99.90;;;;;;5094975;28;20284;-77
2024/03/10 10:17:26;;;;;;;27.50;22.45;;;12.00;99.90;;;;;;5094856;28;20302;-77
2024/03/10 10:19:58;;;;;;;25.25;22.60;;;12.10;99.90;;;;;;5094275;28;20219;-76
2024/03/10 10:22:25;;;;;;;25.10;22.33;;;12.20;99.90;;;;;;5094847;28;20231;-75
2024/03/10 10:25:02;;;;;;;25.58;20.88;;;12.20;99.90;;;;;;5093048;28;20226;-76
2024/03/10 10:27:31;;;;;;;28.13;21.20;;;12.30;99.90;;;;;;5085681;28;20250;-76
2024/03/10 10:29:58;;;;;;;25.98;22.63;;;12.30;99.90;;;;;;5093954;28;20230;-77
2024/03/10 10:32:25;;;;;;;26.58;22.83;;;12.40;99.90;;;;;;5094289;28;20220;-76
2024/03/10 10:34:56;;;;;;;27.02;22.83;;;12.50;99.90;;;;;;5092560;28;20223;-76
2024/03/10 10:37:23;;;;;;;23.75;21.23;;;12.60;99.90;;;;;;5094673;28;20231;-76
2024/03/10 10:39:50;;;;;;;25.83;23.13;;;12.60;99.90;;;;;;5093930;28;20253;-75
2024/03/10 10:42:21;;;;;;;25.40;21.63;;;12.70;99.90;;;;;;5094959;28;20227;-77
2024/03/10 10:44:51;;;;;;;27.48;24.20;;;12.80;99.90;;;;;;5093999;28;20308;-76
2024/03/10 10:47:22;;;;;;;25.42;22.58;;;12.70;99.90;;;;;;5093928;28;20219;-77
2024/03/10 10:49:49;;;;;;;29.63;25.40;;;12.70;99.90;;;;;;5094100;28;20227;-76
2024/03/10 10:52:17;;;;;;;33.22;23.08;;;12.80;99.90;;;;;;5094413;28;20224;-77
2024/03/10 10:54:45;;;;;;;29.10;22.35;;;12.80;99.90;;;;;;5093926;28;20250;-76
2024/03/10 10:57:15;;;;;;;26.98;24.15;;;12.70;99.90;;;;;;5093745;28;20237;-77
2024/03/10 11:00:13;;;;;;;27.58;22.63;;;12.70;99.90;;;;;;5093652;28;20219;-76
2024/03/10 11:02:44;;;;;;;32.72;23.23;;;12.70;99.90;;;;;;5094023;28;20235;-77
2024/03/10 11:05:12;;;;;;;28.35;23.60;;;12.70;99.90;;;;;;5093704;28;20227;-76
2024/03/10 11:07:45;;;;;;;25.88;22.38;;;12.80;99.90;;;;;;5093226;28;20228;-77
2024/03/10 11:10:39;;;;;;;26.02;22.67;;;12.80;99.90;;;;;;5084541;28;20306;-76
2024/03/10 11:13:11;;;;;;;27.40;21.33;;;12.90;99.90;;;;;;5094037;28;20219;-76
2024/03/10 11:15:41;;;;;;;25.52;22.92;;;12.90;99.90;;;;;;5094119;28;20224;-77
2024/03/10 11:18:35;;;;;;;27.35;21.77;;;13.00;99.90;;;;;;5086322;28;20309;-77
2024/03/10 11:21:12;;;;;;;30.20;23.95;;;13.00;99.90;;;;;;5094369;28;20227;-76
2024/03/10 11:23:44;;;;;;;26.80;22.77;;;12.90;99.90;;;;;;5106854;28;20357;-76
2024/03/10 11:26:15;;;;;;;29.38;23.80;;;13.00;99.90;;;;;;5094094;28;20219;-76
2024/03/10 11:28:50;;;;;;;30.00;24.08;;;13.00;99.90;;;;;;5094227;28;20247;-76
2024/03/10 11:31:38;;;;;;;27.20;24.27;;;13.00;99.90;;;;;;5093384;28;20276;-78
2024/03/10 11:34:10;;;;;;;25.45;22.75;;;13.00;99.90;;;;;;5092660;28;20664;-76
2024/03/10 11:36:39;;;;;;;28.80;22.15;;;13.00;99.90;;;;;;5095138;28;20223;-75
2024/03/10 11:39:19;;;;;;;28.73;22.60;;;13.00;99.90;;;;;;5093368;28;20219;-76
2024/03/10 11:41:50;;;;;;;25.27;22.45;;;13.10;99.90;;;;;;5094967;28;20664;-77
2024/03/10 11:44:22;;;;;;;29.45;24.27;;;13.10;99.90;;;;;;5092707;28;20250;-76
2024/03/10 11:46:54;;;;;;;29.60;23.67;;;13.10;99.90;;;;;;5093237;28;20235;-76
2024/03/10 11:49:31;;;;;;;28.25;23.55;;;13.10;99.90;;;;;;5074224;28;20232;-76
2024/03/10 11:51:58;;;;;;;27.95;24.90;;;13.10;99.90;;;;;;5105141;28;20229;-76
2024/03/10 11:54:27;;;;;;;28.23;23.40;;;13.10;99.90;;;;;;5092467;28;20280;-76
2024/03/10 11:56:55;;;;;;;27.50;23.98;;;13.10;99.90;;;;;;5095774;28;20219;-77
2024/03/10 11:59:25;;;;;;;27.65;22.35;;;13.10;99.90;;;;;;5098474;28;20215;-77
2024/03/10 12:01:53;;;;;;;28.35;22.55;;;13.10;99.90;;;;;;5097484;28;20219;-76
2024/03/10 12:04:20;;;;;;;28.88;23.90;;;13.10;99.90;;;;;;5097957;28;20263;-76
2024/03/10 12:06:51;;;;;;;23.75;21.35;;;13.10;99.90;;;;;;5097276;28;20227;-76
2024/03/10 12:09:22;;;;;;;23.02;19.70;;;13.10;99.90;;;;;;5095660;28;20246;-76
2024/03/10 12:11:51;;;;;;;21.77;19.38;;;13.10;99.90;;;;;;5097628;28;20299;-76
2024/03/10 12:14:21;;;;;;;23.50;20.98;;;13.20;99.90;;;;;;5096913;28;20231;-76
2024/03/10 12:16:53;;;;;;;20.60;18.50;;;13.30;99.90;;;;;;5088999;28;20234;-76
2024/03/10 12:19:21;;;;;;;21.15;19.05;;;13.30;99.90;;;;;;5108811;28;20279;-77
2024/03/10 12:21:58;;;;;;;23.77;20.17;;;13.40;99.90;;;;;;5095323;28;20227;-76
2024/03/10 12:24:28;;;;;;;21.40;19.20;;;13.40;99.90;;;;;;5096119;28;20317;-77
2024/03/10 12:26:57;;;;;;;21.77;19.50;;;13.40;99.90;;;;;;5095348;28;20272;-77
2024/03/10 12:29:24;;;;;;;20.83;18.63;;;13.50;99.90;;;;;;5096466;28;20224;-76
2024/03/10 12:31:52;;;;;;;21.92;19.63;;;13.50;99.90;;;;;;5096311;28;20453;-77
2024/03/10 12:34:21;;;;;;;21.92;19.42;;;13.50;99.90;;;;;;5096328;28;20238;-76
2024/03/10 12:36:56;;;;;;;24.10;21.23;;;13.50;99.90;;;;;;5095708;28;20238;-77
2024/03/10 12:39:24;;;;;;;22.10;19.80;;;13.50;99.90;;;;;;5096396;28;20261;-76
2024/03/10 12:41:53;;;;;;;19.63;17.48;;;13.60;99.90;;;;;;5088282;28;20230;-76
2024/03/10 12:44:20;;;;;;;21.38;19.20;;;13.60;99.90;;;;;;5108943;28;20224;-76
2024/03/10 12:46:47;;;;;;;20.52;18.40;;;13.60;99.90;;;;;;5095819;28;20302;-77
2024/03/10 12:49:17;;;;;;;22.65;18.52;;;13.60;99.90;;;;;;5090478;28;20284;-77
2024/03/10 12:51:49;;;;;;;23.13;20.05;;;13.60;99.90;;;;;;5106250;28;20243;-77
2024/03/10 12:54:16;;;;;;;24.83;18.55;;;13.60;99.90;;;;;;5097711;28;20228;-76
2024/03/10 12:56:48;;;;;;;19.02;16.98;;;13.50;99.90;;;;;;5094419;28;20313;-76
2024/03/10 12:59:18;;;;;;;22.65;18.90;;;13.50;99.90;;;;;;5104649;28;20594;-78
2024/03/10 13:01:45;;;;;;;21.83;18.40;;;13.50;99.90;;;;;;5096834;28;20239;-77
2024/03/10 13:04:19;;;;;;;22.08;19.42;;;13.50;99.90;;;;;;5097690;28;20247;-77
2024/03/10 13:06:46;;;;;;;20.30;18.20;;;13.50;99.90;;;;;;5095992;28;20242;-77
2024/03/10 13:09:16;;;;;;;22.83;19.30;;;13.50;99.90;;;;;;5095491;28;20604;-77